MSC115 HEAX-HECA
Flight info
| Callsign | MSC115 |
|---|---|
| Flight time | 0h 34m |
| Altitude | 21000 |
| Route | ALPAM V604 NOZ L617 CVO |
| Aircraft | A320/M-SDE3FGHIRWY/LB1 |
Departure
| Time | 2026-04-24 19:52 |
|---|---|
| Airport | Alexandria International Airport (HEAX) |
Arrival
| Time | 2026-04-24 20:26 |
|---|---|
| Airport | Cairo International Airport (HECA) |
| Time | Latitude | Longitude | Altitude | Speed | Heading |
|---|---|---|---|---|---|
| 2026-04-24 18:54 | 31.19204 | 29.95405 | 9 ft | 0 kts | 0° |
| 2026-04-24 19:09 | 30.91700 | 29.69003 | 192 ft | 0 kts | 232° |
| 2026-04-24 19:45 | 30.91708 | 29.69015 | 192 ft | 2 kts | 232° |
| 2026-04-24 19:45 | 30.91720 | 29.69033 | 192 ft | 3 kts | 232° |
| 2026-04-24 19:45 | 30.91732 | 29.69051 | 192 ft | 3 kts | 232° |
| 2026-04-24 19:46 | 30.91742 | 29.69066 | 192 ft | 0 kts | 232° |
| 2026-04-24 19:46 | 30.91742 | 29.69065 | 192 ft | 0 kts | 232° |
| 2026-04-24 19:46 | 30.91741 | 29.69065 | 192 ft | 1 kts | 232° |
| 2026-04-24 19:46 | 30.91743 | 29.69045 | 192 ft | 4 kts | 313° |
| 2026-04-24 19:47 | 30.91780 | 29.69015 | 192 ft | 11 kts | 324° |
| 2026-04-24 19:47 | 30.91862 | 29.68966 | 192 ft | 14 kts | 335° |
| 2026-04-24 19:47 | 30.91935 | 29.68961 | 192 ft | 10 kts | 45° |
| 2026-04-24 19:47 | 30.91984 | 29.68998 | 192 ft | 9 kts | 332° |
| 2026-04-24 19:48 | 30.92033 | 29.68958 | 192 ft | 9 kts | 322° |
| 2026-04-24 19:48 | 30.92111 | 29.68885 | 192 ft | 21 kts | 320° |
| 2026-04-24 19:48 | 30.92368 | 29.68666 | 192 ft | 20 kts | 320° |
| 2026-04-24 19:49 | 30.92581 | 29.68470 | 192 ft | 22 kts | 323° |
| 2026-04-24 19:49 | 30.92778 | 29.68344 | 192 ft | 15 kts | 39° |
| 2026-04-24 19:50 | 30.92909 | 29.68567 | 192 ft | 5 kts | 55° |
| 2026-04-24 19:50 | 30.92911 | 29.68606 | 192 ft | 8 kts | 122° |
| 2026-04-24 19:51 | 30.92214 | 29.69241 | 192 ft | 127 kts | 143° |
| 2026-04-24 19:51 | 30.91374 | 29.69966 | 211 ft | 173 kts | 143° |
| 2026-04-24 19:52 | 30.89440 | 29.71617 | 1717 ft | 173 kts | 144° |
| 2026-04-24 19:52 | 30.88477 | 29.72533 | 2381 ft | 185 kts | 137° |
| 2026-04-24 19:52 | 30.87672 | 29.73797 | 2778 ft | 210 kts | 120° |
| 2026-04-24 19:52 | 30.87322 | 29.75511 | 3310 ft | 225 kts | 93° |
| 2026-04-24 19:53 | 30.86963 | 29.77315 | 3947 ft | 242 kts | 114° |
| 2026-04-24 19:53 | 30.86137 | 29.79101 | 4627 ft | 256 kts | 118° |
| 2026-04-24 19:53 | 30.84382 | 29.82935 | 6190 ft | 278 kts | 117° |
| 2026-04-24 19:54 | 30.83498 | 29.84977 | 7066 ft | 286 kts | 117° |
| 2026-04-24 19:54 | 30.82623 | 29.87073 | 7996 ft | 291 kts | 117° |
| 2026-04-24 19:54 | 30.81735 | 29.89222 | 8919 ft | 296 kts | 117° |
| 2026-04-24 19:54 | 30.80838 | 29.91395 | 9826 ft | 301 kts | 117° |
| 2026-04-24 19:55 | 30.80221 | 29.92891 | 10400 ft | 306 kts | 117° |
| 2026-04-24 19:55 | 30.78939 | 29.95989 | 10892 ft | 338 kts | 117° |
| 2026-04-24 19:55 | 30.77875 | 29.98542 | 11245 ft | 360 kts | 117° |
| 2026-04-24 19:55 | 30.76760 | 30.01213 | 11872 ft | 373 kts | 117° |
| 2026-04-24 19:56 | 30.75615 | 30.03951 | 12671 ft | 378 kts | 117° |
| 2026-04-24 19:56 | 30.74460 | 30.06715 | 13516 ft | 382 kts | 117° |
| 2026-04-24 19:56 | 30.73299 | 30.09491 | 14315 ft | 386 kts | 117° |
| 2026-04-24 19:56 | 30.72120 | 30.12312 | 15166 ft | 387 kts | 117° |
| 2026-04-24 19:57 | 30.70956 | 30.15102 | 16276 ft | 379 kts | 117° |
| 2026-04-24 19:57 | 30.69819 | 30.17835 | 17341 ft | 371 kts | 117° |
| 2026-04-24 19:57 | 30.68702 | 30.20524 | 18220 ft | 368 kts | 117° |
| 2026-04-24 19:57 | 30.67590 | 30.23205 | 18953 ft | 369 kts | 117° |
| 2026-04-24 19:58 | 30.66492 | 30.25867 | 19606 ft | 371 kts | 116° |
| 2026-04-24 19:58 | 30.65617 | 30.28713 | 20285 ft | 373 kts | 107° |
| 2026-04-24 19:58 | 30.64966 | 30.31641 | 20844 ft | 378 kts | 105° |
| 2026-04-24 19:58 | 30.64382 | 30.34672 | 20995 ft | 395 kts | 102° |
| 2026-04-24 19:59 | 30.63837 | 30.37892 | 21022 ft | 412 kts | 101° |
| 2026-04-24 19:59 | 30.63289 | 30.41214 | 21006 ft | 424 kts | 101° |
| 2026-04-24 19:59 | 30.62730 | 30.44612 | 20998 ft | 431 kts | 101° |
| 2026-04-24 19:59 | 30.62168 | 30.48028 | 20996 ft | 433 kts | 101° |
| 2026-04-24 20:00 | 30.61519 | 30.51457 | 20988 ft | 434 kts | 109° |
| 2026-04-24 20:00 | 30.60326 | 30.54616 | 20996 ft | 433 kts | 120° |
| 2026-04-24 20:00 | 30.58527 | 30.57400 | 20877 ft | 428 kts | 136° |
| 2026-04-24 20:00 | 30.56355 | 30.59699 | 20284 ft | 421 kts | 142° |
| 2026-04-24 20:01 | 30.54088 | 30.61844 | 19552 ft | 418 kts | 144° |
| 2026-04-24 20:01 | 30.51807 | 30.63948 | 18856 ft | 414 kts | 144° |
| 2026-04-24 20:01 | 30.49579 | 30.65992 | 18130 ft | 412 kts | 144° |
| 2026-04-24 20:01 | 30.47351 | 30.68034 | 17179 ft | 404 kts | 144° |
| 2026-04-24 20:02 | 30.45890 | 30.69372 | 16448 ft | 401 kts | 144° |
| 2026-04-24 20:02 | 30.42980 | 30.72036 | 15036 ft | 395 kts | 144° |
| 2026-04-24 20:02 | 30.40834 | 30.73999 | 13906 ft | 391 kts | 144° |
| 2026-04-24 20:02 | 30.38704 | 30.75945 | 12774 ft | 387 kts | 144° |
| 2026-04-24 20:03 | 30.36608 | 30.77857 | 11654 ft | 382 kts | 144° |
| 2026-04-24 20:03 | 30.34579 | 30.79708 | 10365 ft | 380 kts | 144° |
| 2026-04-24 20:03 | 30.32444 | 30.81650 | 9023 ft | 377 kts | 144° |
| 2026-04-24 20:03 | 30.30437 | 30.83476 | 8179 ft | 362 kts | 144° |
| 2026-04-24 20:04 | 30.28481 | 30.85260 | 7452 ft | 343 kts | 144° |
| 2026-04-24 20:04 | 30.26684 | 30.86905 | 6920 ft | 322 kts | 144° |
| 2026-04-24 20:04 | 30.24997 | 30.88461 | 6841 ft | 303 kts | 144° |
| 2026-04-24 20:04 | 30.23380 | 30.89956 | 6822 ft | 293 kts | 144° |
| 2026-04-24 20:05 | 30.21828 | 30.91399 | 6627 ft | 279 kts | 144° |
| 2026-04-24 20:05 | 30.20351 | 30.92775 | 6452 ft | 264 kts | 144° |
| 2026-04-24 20:05 | 30.18961 | 30.94064 | 6327 ft | 247 kts | 144° |
| 2026-04-24 20:05 | 30.17656 | 30.95269 | 6210 ft | 233 kts | 144° |
| 2026-04-24 20:06 | 30.16566 | 30.96573 | 6056 ft | 222 kts | 128° |
| 2026-04-24 20:06 | 30.15742 | 30.98014 | 5828 ft | 215 kts | 124° |
| 2026-04-24 20:06 | 30.14933 | 30.99432 | 5630 ft | 205 kts | 124° |
| 2026-04-24 20:06 | 30.14156 | 31.00762 | 5425 ft | 200 kts | 124° |
| 2026-04-24 20:07 | 30.13615 | 31.01675 | 5427 ft | 205 kts | 124° |
| 2026-04-24 20:07 | 30.12539 | 31.03487 | 5434 ft | 207 kts | 124° |
| 2026-04-24 20:07 | 30.11719 | 31.04865 | 5438 ft | 209 kts | 124° |
| 2026-04-24 20:07 | 30.10891 | 31.06257 | 5440 ft | 209 kts | 124° |
| 2026-04-24 20:08 | 30.10064 | 31.07647 | 5445 ft | 214 kts | 124° |
| 2026-04-24 20:08 | 30.09199 | 31.09100 | 5472 ft | 231 kts | 124° |
| 2026-04-24 20:08 | 30.08266 | 31.10670 | 5480 ft | 237 kts | 124° |
| 2026-04-24 20:08 | 30.07325 | 31.12254 | 5482 ft | 237 kts | 124° |
| 2026-04-24 20:09 | 30.06432 | 31.13756 | 5416 ft | 222 kts | 124° |
| 2026-04-24 20:09 | 30.05562 | 31.15214 | 5209 ft | 213 kts | 124° |
| 2026-04-24 20:09 | 30.04739 | 31.16580 | 4948 ft | 208 kts | 124° |
| 2026-04-24 20:09 | 30.03919 | 31.17930 | 4659 ft | 203 kts | 124° |
| 2026-04-24 20:10 | 30.03119 | 31.19273 | 4349 ft | 200 kts | 118° |
| 2026-04-24 20:10 | 30.02827 | 31.20788 | 3956 ft | 196 kts | 88° |
| 2026-04-24 20:10 | 30.02939 | 31.22341 | 3671 ft | 191 kts | 84° |
| 2026-04-24 20:10 | 30.03064 | 31.23847 | 3448 ft | 182 kts | 84° |
| 2026-04-24 20:11 | 30.03181 | 31.25232 | 3304 ft | 167 kts | 84° |
| 2026-04-24 20:11 | 30.03289 | 31.26517 | 3061 ft | 158 kts | 84° |
| 2026-04-24 20:11 | 30.03397 | 31.27801 | 2637 ft | 161 kts | 84° |
| 2026-04-24 20:11 | 30.03500 | 31.29031 | 2395 ft | 149 kts | 84° |
| 2026-04-24 20:12 | 30.03601 | 31.30220 | 2465 ft | 148 kts | 84° |
| 2026-04-24 20:12 | 30.03894 | 31.31359 | 2493 ft | 148 kts | 64° |
| 2026-04-24 20:12 | 30.04444 | 31.32359 | 2299 ft | 150 kts | 55° |
| 2026-04-24 20:12 | 30.05120 | 31.33347 | 2033 ft | 162 kts | 51° |
| 2026-04-24 20:13 | 30.05868 | 31.34363 | 1720 ft | 163 kts | 49° |
| 2026-04-24 20:13 | 30.06601 | 31.35342 | 1444 ft | 166 kts | 49° |
| 2026-04-24 20:13 | 30.07366 | 31.36359 | 1196 ft | 166 kts | 49° |
| 2026-04-24 20:13 | 30.08098 | 31.37333 | 957 ft | 154 kts | 49° |
| 2026-04-24 20:14 | 30.08776 | 31.38236 | 760 ft | 147 kts | 49° |
| 2026-04-24 20:14 | 30.09436 | 31.39114 | 587 ft | 142 kts | 49° |
| 2026-04-24 20:14 | 30.10054 | 31.40092 | 575 ft | 158 kts | 53° |
| 2026-04-24 20:14 | 30.10845 | 31.41063 | 1022 ft | 179 kts | 42° |
| 2026-04-24 20:15 | 30.11851 | 31.41992 | 1920 ft | 177 kts | 38° |
| 2026-04-24 20:15 | 30.12760 | 31.42874 | 3131 ft | 168 kts | 46° |
| 2026-04-24 20:15 | 30.13531 | 31.43897 | 3866 ft | 177 kts | 49° |
| 2026-04-24 20:15 | 30.14391 | 31.45046 | 3921 ft | 197 kts | 49° |
| 2026-04-24 20:16 | 30.15297 | 31.46255 | 3518 ft | 199 kts | 49° |
| 2026-04-24 20:16 | 30.16065 | 31.47583 | 3407 ft | 201 kts | 73° |
| 2026-04-24 20:16 | 30.16052 | 31.49187 | 3484 ft | 204 kts | 109° |
| 2026-04-24 20:16 | 30.15228 | 31.50481 | 3510 ft | 206 kts | 145° |
| 2026-04-24 20:17 | 30.13873 | 31.51028 | 3526 ft | 207 kts | 172° |
| 2026-04-24 20:17 | 30.11022 | 31.51339 | 3499 ft | 207 kts | 175° |
| 2026-04-24 20:17 | 30.09584 | 31.51491 | 3498 ft | 207 kts | 175° |
| 2026-04-24 20:18 | 30.08634 | 31.51592 | 3499 ft | 207 kts | 175° |
| 2026-04-24 20:18 | 30.06731 | 31.51793 | 3499 ft | 207 kts | 175° |
| 2026-04-24 20:18 | 30.05300 | 31.51944 | 3499 ft | 207 kts | 175° |
| 2026-04-24 20:18 | 30.03859 | 31.52096 | 3499 ft | 207 kts | 175° |
| 2026-04-24 20:19 | 30.02436 | 31.52057 | 3468 ft | 206 kts | 197° |
| 2026-04-24 20:19 | 30.01257 | 31.51144 | 3497 ft | 207 kts | 229° |
| 2026-04-24 20:19 | 30.00407 | 31.49819 | 3532 ft | 208 kts | 234° |
| 2026-04-24 20:19 | 29.99567 | 31.48443 | 3502 ft | 207 kts | 234° |
| 2026-04-24 20:20 | 29.98739 | 31.47093 | 3498 ft | 207 kts | 234° |
| 2026-04-24 20:20 | 29.97916 | 31.45751 | 3499 ft | 207 kts | 234° |
| 2026-04-24 20:20 | 29.97087 | 31.44398 | 3499 ft | 207 kts | 234° |
| 2026-04-24 20:20 | 29.96254 | 31.43041 | 3499 ft | 207 kts | 234° |
| 2026-04-24 20:21 | 29.95420 | 31.41680 | 3499 ft | 207 kts | 234° |
| 2026-04-24 20:21 | 29.94600 | 31.40322 | 3499 ft | 207 kts | 236° |
| 2026-04-24 20:21 | 29.94090 | 31.38800 | 3461 ft | 206 kts | 267° |
| 2026-04-24 20:21 | 29.94431 | 31.37232 | 3491 ft | 207 kts | 302° |
| 2026-04-24 20:22 | 29.95374 | 31.35984 | 3544 ft | 207 kts | 314° |
| 2026-04-24 20:22 | 29.96389 | 31.34809 | 3537 ft | 200 kts | 315° |
| 2026-04-24 20:22 | 29.97342 | 31.33702 | 3497 ft | 196 kts | 315° |
| 2026-04-24 20:22 | 29.98341 | 31.32632 | 3489 ft | 194 kts | 318° |
| 2026-04-24 20:23 | 29.99360 | 31.31631 | 3490 ft | 193 kts | 324° |
| 2026-04-24 20:23 | 30.00585 | 31.31004 | 3493 ft | 192 kts | 344° |
| 2026-04-24 20:23 | 30.01906 | 31.30800 | 3470 ft | 190 kts | 3° |
| 2026-04-24 20:23 | 30.03075 | 31.31267 | 3306 ft | 168 kts | 28° |
| 2026-04-24 20:24 | 30.03687 | 31.31758 | 3040 ft | 159 kts | 38° |
| 2026-04-24 20:24 | 30.04714 | 31.32884 | 2368 ft | 149 kts | 46° |
| 2026-04-24 20:24 | 30.05422 | 31.33784 | 1756 ft | 151 kts | 48° |
| 2026-04-24 20:24 | 30.05877 | 31.34382 | 1436 ft | 146 kts | 49° |
| 2026-04-24 20:25 | 30.06521 | 31.35236 | 1293 ft | 141 kts | 49° |
| 2026-04-24 20:25 | 30.07375 | 31.36372 | 1158 ft | 141 kts | 49° |
| 2026-04-24 20:25 | 30.08052 | 31.37273 | 1025 ft | 148 kts | 49° |
| 2026-04-24 20:25 | 30.08490 | 31.37855 | 860 ft | 141 kts | 49° |
| 2026-04-24 20:26 | 30.09128 | 31.38705 | 665 ft | 139 kts | 49° |
| 2026-04-24 20:26 | 30.09754 | 31.39538 | 501 ft | 137 kts | 49° |
| 2026-04-24 20:26 | 30.10363 | 31.40348 | 397 ft | 115 kts | 49° |
| 2026-04-24 20:26 | 30.10718 | 31.40821 | 397 ft | 43 kts | 49° |
| 2026-04-24 20:27 | 30.10874 | 31.40992 | 397 ft | 28 kts | 31° |
| 2026-04-24 20:27 | 30.11034 | 31.41090 | 397 ft | 19 kts | 26° |
| 2026-04-24 20:27 | 30.11108 | 31.41133 | 397 ft | 7 kts | 26° |
| 2026-04-24 20:27 | 30.11149 | 31.41157 | 397 ft | 6 kts | 27° |
| 2026-04-24 20:28 | 30.11170 | 31.41169 | 397 ft | 0 kts | 27° |
| 2026-04-24 20:29 | 30.11171 | 31.41169 | 397 ft | 1 kts | 27° |
| 2026-04-24 20:29 | 30.11196 | 31.41184 | 397 ft | 5 kts | 27° |
| 2026-04-24 20:29 | 30.11262 | 31.41223 | 397 ft | 21 kts | 27° |
| 2026-04-24 20:29 | 30.11436 | 31.41217 | 397 ft | 25 kts | 339° |
| 2026-04-24 20:30 | 30.11560 | 31.41171 | 397 ft | 17 kts | 343° |
| 2026-04-24 20:30 | 30.11679 | 31.41129 | 397 ft | 21 kts | 339° |
| 2026-04-24 20:30 | 30.11833 | 31.41073 | 397 ft | 24 kts | 343° |
| 2026-04-24 20:30 | 30.11986 | 31.41020 | 397 ft | 23 kts | 343° |
| 2026-04-24 20:31 | 30.12149 | 31.40957 | 397 ft | 28 kts | 338° |
| 2026-04-24 20:31 | 30.12354 | 31.40884 | 397 ft | 32 kts | 342° |
| 2026-04-24 20:31 | 30.12555 | 31.40813 | 397 ft | 22 kts | 347° |
| 2026-04-24 20:31 | 30.12688 | 31.40763 | 397 ft | 17 kts | 341° |
| 2026-04-24 20:32 | 30.12794 | 31.40727 | 397 ft | 15 kts | 346° |
| 2026-04-24 20:32 | 30.12890 | 31.40685 | 397 ft | 14 kts | 342° |
| 2026-04-24 20:32 | 30.13008 | 31.40639 | 397 ft | 26 kts | 337° |
| 2026-04-24 20:32 | 30.13101 | 31.40532 | 397 ft | 20 kts | 252° |
| 2026-04-24 20:33 | 30.13072 | 31.40382 | 397 ft | 19 kts | 261° |
| 2026-04-24 20:33 | 30.13071 | 31.40260 | 397 ft | 13 kts | 317° |
| 2026-04-24 20:33 | 30.13108 | 31.40212 | 397 ft | 6 kts | 260° |
| 2026-04-24 20:33 | 30.13085 | 31.40185 | 397 ft | 4 kts | 204° |
| 2026-04-24 20:34 | 30.13073 | 31.40180 | 397 ft | 0 kts | 201° |